sensor_id;sensor_type;location;lat;lon;timestamp;P1;durP1;ratioP1;P2;durP2;ratioP2
50104;SDS011;47690;39.202;-77.198;2023-06-14T00:00:49;4.50;;;4.03;;
50104;SDS011;47690;39.202;-77.198;2023-06-14T00:03:24;4.00;;;3.50;;
50104;SDS011;47690;39.202;-77.198;2023-06-14T00:05:58;5.10;;;3.88;;
50104;SDS011;47690;39.202;-77.198;2023-06-14T00:08:29;4.23;;;3.83;;
50104;SDS011;47690;39.202;-77.198;2023-06-14T00:10:59;4.93;;;3.65;;
50104;SDS011;47690;39.202;-77.198;2023-06-14T00:13:29;4.70;;;3.88;;
50104;SDS011;47690;39.202;-77.198;2023-06-14T00:15:59;3.90;;;3.50;;
50104;SDS011;47690;39.202;-77.198;2023-06-14T00:18:30;4.20;;;3.80;;
50104;SDS011;47690;39.202;-77.198;2023-06-14T00:21:05;4.38;;;3.85;;
50104;SDS011;47690;39.202;-77.198;2023-06-14T00:23:36;4.57;;;4.05;;
50104;SDS011;47690;39.202;-77.198;2023-06-14T00:26:33;4.35;;;3.95;;
50104;SDS011;47690;39.202;-77.198;2023-06-14T00:29:03;4.32;;;3.78;;
50104;SDS011;47690;39.202;-77.198;2023-06-14T00:31:35;4.75;;;3.95;;
50104;SDS011;47690;39.202;-77.198;2023-06-14T00:34:08;4.57;;;3.75;;
50104;SDS011;47690;39.202;-77.198;2023-06-14T00:36:41;4.60;;;3.75;;
50104;SDS011;47690;39.202;-77.198;2023-06-14T00:39:16;3.95;;;3.55;;
50104;SDS011;47690;39.202;-77.198;2023-06-14T00:41:49;4.63;;;4.20;;
50104;SDS011;47690;39.202;-77.198;2023-06-14T00:44:21;5.28;;;3.60;;
50104;SDS011;47690;39.202;-77.198;2023-06-14T00:46:57;4.28;;;3.88;;
50104;SDS011;47690;39.202;-77.198;2023-06-14T00:49:27;4.30;;;3.90;;
50104;SDS011;47690;39.202;-77.198;2023-06-14T00:51:59;4.35;;;3.90;;
50104;SDS011;47690;39.202;-77.198;2023-06-14T00:54:31;5.40;;;3.95;;
50104;SDS011;47690;39.202;-77.198;2023-06-14T00:57:06;4.38;;;3.83;;
50104;SDS011;47690;39.202;-77.198;2023-06-14T00:59:49;4.28;;;3.80;;
50104;SDS011;47690;39.202;-77.198;2023-06-14T01:12:11;4.40;;;3.75;;
50104;SDS011;47690;39.202;-77.198;2023-06-14T01:15:27;4.60;;;4.10;;
50104;SDS011;47690;39.202;-77.198;2023-06-14T01:18:03;5.25;;;4.10;;
50104;SDS011;47690;39.202;-77.198;2023-06-14T01:20:47;4.70;;;4.20;;
50104;SDS011;47690;39.202;-77.198;2023-06-14T01:26:12;4.57;;;3.85;;
50104;SDS011;47690;39.202;-77.198;2023-06-14T01:30:22;5.43;;;3.75;;
50104;SDS011;47690;39.202;-77.198;2023-06-14T01:33:00;5.43;;;3.75;;
50104;SDS011;47690;39.202;-77.198;2023-06-14T01:35:32;5.18;;;4.15;;
50104;SDS011;47690;39.202;-77.198;2023-06-14T01:38:04;4.70;;;4.30;;
50104;SDS011;47690;39.202;-77.198;2023-06-14T01:40:47;5.00;;;4.40;;
50104;SDS011;47690;39.202;-77.198;2023-06-14T01:43:21;4.75;;;4.30;;
50104;SDS011;47690;39.202;-77.198;2023-06-14T01:45:52;5.13;;;4.25;;
50104;SDS011;47690;39.202;-77.198;2023-06-14T01:48:34;4.90;;;4.40;;
50104;SDS011;47690;39.202;-77.198;2023-06-14T01:51:05;5.03;;;4.05;;
50104;SDS011;47690;39.202;-77.198;2023-06-14T01:53:35;4.57;;;4.07;;
50104;SDS011;47690;39.202;-77.198;2023-06-14T01:56:06;4.88;;;4.22;;
50104;SDS011;47690;39.202;-77.198;2023-06-14T01:58:36;5.10;;;4.43;;
50104;SDS011;47690;39.202;-77.198;2023-06-14T02:01:12;5.13;;;4.32;;
50104;SDS011;47690;39.202;-77.198;2023-06-14T02:03:47;4.68;;;4.07;;
50104;SDS011;47690;39.202;-77.198;2023-06-14T02:06:17;4.45;;;3.88;;
50104;SDS011;47690;39.202;-77.198;2023-06-14T02:08:50;4.47;;;4.00;;
50104;SDS011;47690;39.202;-77.198;2023-06-14T02:11:20;4.40;;;3.65;;
50104;SDS011;47690;39.202;-77.198;2023-06-14T02:13:51;5.47;;;4.35;;
50104;SDS011;47690;39.202;-77.198;2023-06-14T02:16:23;4.63;;;4.10;;
50104;SDS011;47690;39.202;-77.198;2023-06-14T02:19:05;4.80;;;4.30;;
50104;SDS011;47690;39.202;-77.198;2023-06-14T02:21:36;4.55;;;4.10;;
50104;SDS011;47690;39.202;-77.198;2023-06-14T02:24:05;5.13;;;4.63;;
50104;SDS011;47690;39.202;-77.198;2023-06-14T02:26:36;4.90;;;4.30;;
50104;SDS011;47690;39.202;-77.198;2023-06-14T02:29:18;5.00;;;4.35;;
50104;SDS011;47690;39.202;-77.198;2023-06-14T02:32:08;4.43;;;3.97;;
50104;SDS011;47690;39.202;-77.198;2023-06-14T02:35:20;5.47;;;4.60;;
50104;SDS011;47690;39.202;-77.198;2023-06-14T02:49:42;4.25;;;3.60;;
50104;SDS011;47690;39.202;-77.198;2023-06-14T02:58:03;3.95;;;3.55;;
50104;SDS011;47690;39.202;-77.198;2023-06-14T03:02:18;4.30;;;3.90;;
50104;SDS011;47690;39.202;-77.198;2023-06-14T03:05:32;4.72;;;4.20;;
50104;SDS011;47690;39.202;-77.198;2023-06-14T03:11:07;5.15;;;4.43;;
50104;SDS011;47690;39.202;-77.198;2023-06-14T03:15:34;4.57;;;4.05;;
50104;SDS011;47690;39.202;-77.198;2023-06-14T03:23:56;4.70;;;3.97;;
50104;SDS011;47690;39.202;-77.198;2023-06-14T03:26:58;5.03;;;4.22;;
50104;SDS011;47690;39.202;-77.198;2023-06-14T03:35:28;4.57;;;4.07;;
50104;SDS011;47690;39.202;-77.198;2023-06-14T03:42:36;5.07;;;4.35;;
50104;SDS011;47690;39.202;-77.198;2023-06-14T03:46:11;5.30;;;4.40;;
50104;SDS011;47690;39.202;-77.198;2023-06-14T03:49:23;5.50;;;4.43;;
50104;SDS011;47690;39.202;-77.198;2023-06-14T03:51:57;5.00;;;4.50;;
50104;SDS011;47690;39.202;-77.198;2023-06-14T03:54:27;4.65;;;4.15;;
50104;SDS011;47690;39.202;-77.198;2023-06-14T03:58:01;5.20;;;4.28;;
50104;SDS011;47690;39.202;-77.198;2023-06-14T04:00:32;5.38;;;4.50;;
50104;SDS011;47690;39.202;-77.198;2023-06-14T04:03:05;7.65;;;4.60;;
50104;SDS011;47690;39.202;-77.198;2023-06-14T04:05:36;5.72;;;4.85;;
50104;SDS011;47690;39.202;-77.198;2023-06-14T04:08:13;5.40;;;4.43;;
50104;SDS011;47690;39.202;-77.198;2023-06-14T04:10:48;5.20;;;4.60;;
50104;SDS011;47690;39.202;-77.198;2023-06-14T04:13:18;5.05;;;4.20;;
50104;SDS011;47690;39.202;-77.198;2023-06-14T04:15:48;5.30;;;4.65;;
50104;SDS011;47690;39.202;-77.198;2023-06-14T04:18:25;5.28;;;4.32;;
50104;SDS011;47690;39.202;-77.198;2023-06-14T04:20:55;4.97;;;4.43;;
50104;SDS011;47690;39.202;-77.198;2023-06-14T04:23:27;4.90;;;4.40;;
50104;SDS011;47690;39.202;-77.198;2023-06-14T04:26:00;4.93;;;4.20;;
50104;SDS011;47690;39.202;-77.198;2023-06-14T04:28:31;5.43;;;4.82;;
50104;SDS011;47690;39.202;-77.198;2023-06-14T04:31:08;5.15;;;4.57;;
50104;SDS011;47690;39.202;-77.198;2023-06-14T04:33:51;5.13;;;4.32;;
50104;SDS011;47690;39.202;-77.198;2023-06-14T04:36:26;5.10;;;4.22;;
50104;SDS011;47690;39.202;-77.198;2023-06-14T04:39:03;7.60;;;4.50;;
50104;SDS011;47690;39.202;-77.198;2023-06-14T04:41:50;4.97;;;4.30;;
50104;SDS011;47690;39.202;-77.198;2023-06-14T04:44:25;7.00;;;4.43;;
50104;SDS011;47690;39.202;-77.198;2023-06-14T04:47:04;5.60;;;4.57;;
50104;SDS011;47690;39.202;-77.198;2023-06-14T04:49:36;5.13;;;4.50;;
50104;SDS011;47690;39.202;-77.198;2023-06-14T04:52:08;5.78;;;4.45;;
50104;SDS011;47690;39.202;-77.198;2023-06-14T04:54:47;5.82;;;4.43;;
50104;SDS011;47690;39.202;-77.198;2023-06-14T04:57:19;5.57;;;4.72;;
50104;SDS011;47690;39.202;-77.198;2023-06-14T04:59:56;5.53;;;4.40;;
50104;SDS011;47690;39.202;-77.198;2023-06-14T05:02:35;5.18;;;4.47;;
50104;SDS011;47690;39.202;-77.198;2023-06-14T05:05:11;5.72;;;4.28;;
50104;SDS011;47690;39.202;-77.198;2023-06-14T05:07:47;5.20;;;4.60;;
50104;SDS011;47690;39.202;-77.198;2023-06-14T05:10:17;4.95;;;4.20;;
50104;SDS011;47690;39.202;-77.198;2023-06-14T05:12:48;5.50;;;4.85;;
50104;SDS011;47690;39.202;-77.198;2023-06-14T05:15:19;5.15;;;4.50;;
50104;SDS011;47690;39.202;-77.198;2023-06-14T05:17:50;5.53;;;4.60;;
50104;SDS011;47690;39.202;-77.198;2023-06-14T05:20:27;6.00;;;4.40;;
50104;SDS011;47690;39.202;-77.198;2023-06-14T05:23:00;5.70;;;4.72;;
50104;SDS011;47690;39.202;-77.198;2023-06-14T05:25:32;5.22;;;4.05;;
50104;SDS011;47690;39.202;-77.198;2023-06-14T05:28:03;5.65;;;4.43;;
50104;SDS011;47690;39.202;-77.198;2023-06-14T05:30:38;5.28;;;4.50;;
50104;SDS011;47690;39.202;-77.198;2023-06-14T05:33:08;5.63;;;4.57;;
50104;SDS011;47690;39.202;-77.198;2023-06-14T05:35:45;4.80;;;4.30;;
50104;SDS011;47690;39.202;-77.198;2023-06-14T05:38:20;4.63;;;4.15;;
50104;SDS011;47690;39.202;-77.198;2023-06-14T05:40:53;7.32;;;4.22;;
50104;SDS011;47690;39.202;-77.198;2023-06-14T05:43:27;4.85;;;4.35;;
50104;SDS011;47690;39.202;-77.198;2023-06-14T05:45:58;4.97;;;4.43;;
50104;SDS011;47690;39.202;-77.198;2023-06-14T05:48:38;5.13;;;4.40;;
50104;SDS011;47690;39.202;-77.198;2023-06-14T05:51:08;5.07;;;4.57;;
50104;SDS011;47690;39.202;-77.198;2023-06-14T05:53:42;6.13;;;4.43;;
50104;SDS011;47690;39.202;-77.198;2023-06-14T05:56:16;5.57;;;4.38;;
50104;SDS011;47690;39.202;-77.198;2023-06-14T06:00:07;5.18;;;4.30;;
50104;SDS011;47690;39.202;-77.198;2023-06-14T06:02:43;5.00;;;4.25;;
50104;SDS011;47690;39.202;-77.198;2023-06-14T06:05:17;4.97;;;4.18;;
50104;SDS011;47690;39.202;-77.198;2023-06-14T06:07:47;4.90;;;4.38;;
50104;SDS011;47690;39.202;-77.198;2023-06-14T06:10:23;5.35;;;4.57;;
50104;SDS011;47690;39.202;-77.198;2023-06-14T06:12:56;6.20;;;4.30;;
50104;SDS011;47690;39.202;-77.198;2023-06-14T06:15:27;5.93;;;4.30;;
50104;SDS011;47690;39.202;-77.198;2023-06-14T06:17:58;5.45;;;4.95;;
50104;SDS011;47690;39.202;-77.198;2023-06-14T06:20:30;4.57;;;4.10;;
50104;SDS011;47690;39.202;-77.198;2023-06-14T06:23:03;5.93;;;4.90;;
50104;SDS011;47690;39.202;-77.198;2023-06-14T06:25:39;5.20;;;4.47;;
50104;SDS011;47690;39.202;-77.198;2023-06-14T06:30:47;4.55;;;3.78;;
50104;SDS011;47690;39.202;-77.198;2023-06-14T06:33:19;4.45;;;3.92;;
50104;SDS011;47690;39.202;-77.198;2023-06-14T06:35:53;4.63;;;4.20;;
50104;SDS011;47690;39.202;-77.198;2023-06-14T06:38:31;5.53;;;4.15;;
50104;SDS011;47690;39.202;-77.198;2023-06-14T06:41:28;5.55;;;4.53;;
50104;SDS011;47690;39.202;-77.198;2023-06-14T06:44:38;4.45;;;3.97;;
50104;SDS011;47690;39.202;-77.198;2023-06-14T06:47:16;4.45;;;4.05;;
50104;SDS011;47690;39.202;-77.198;2023-06-14T06:49:46;5.43;;;4.53;;
50104;SDS011;47690;39.202;-77.198;2023-06-14T06:52:18;5.03;;;4.53;;
50104;SDS011;47690;39.202;-77.198;2023-06-14T06:54:48;4.90;;;4.38;;
50104;SDS011;47690;39.202;-77.198;2023-06-14T06:57:26;6.88;;;4.60;;
50104;SDS011;47690;39.202;-77.198;2023-06-14T06:59:58;4.82;;;4.22;;
50104;SDS011;47690;39.202;-77.198;2023-06-14T07:02:30;5.13;;;4.60;;
50104;SDS011;47690;39.202;-77.198;2023-06-14T07:05:06;4.70;;;4.13;;
50104;SDS011;47690;39.202;-77.198;2023-06-14T07:07:43;4.53;;;3.92;;
50104;SDS011;47690;39.202;-77.198;2023-06-14T07:10:18;5.10;;;4.10;;
50104;SDS011;47690;39.202;-77.198;2023-06-14T07:12:54;4.78;;;4.18;;
50104;SDS011;47690;39.202;-77.198;2023-06-14T07:15:26;5.00;;;4.25;;
50104;SDS011;47690;39.202;-77.198;2023-06-14T07:17:58;5.35;;;4.13;;
50104;SDS011;47690;39.202;-77.198;2023-06-14T07:20:30;4.97;;;4.20;;
50104;SDS011;47690;39.202;-77.198;2023-06-14T07:23:03;4.60;;;4.10;;
50104;SDS011;47690;39.202;-77.198;2023-06-14T07:25:36;4.90;;;4.10;;
50104;SDS011;47690;39.202;-77.198;2023-06-14T07:28:07;4.47;;;3.97;;
50104;SDS011;47690;39.202;-77.198;2023-06-14T07:30:38;4.78;;;4.28;;
50104;SDS011;47690;39.202;-77.198;2023-06-14T07:33:08;4.35;;;3.90;;
50104;SDS011;47690;39.202;-77.198;2023-06-14T07:35:46;4.65;;;4.15;;
50104;SDS011;47690;39.202;-77.198;2023-06-14T07:38:22;4.40;;;3.90;;
50104;SDS011;47690;39.202;-77.198;2023-06-14T07:40:52;5.40;;;4.00;;
50104;SDS011;47690;39.202;-77.198;2023-06-14T07:43:26;4.93;;;4.43;;
50104;SDS011;47690;39.202;-77.198;2023-06-14T07:45:59;5.30;;;4.28;;
50104;SDS011;47690;39.202;-77.198;2023-06-14T07:48:36;4.93;;;4.30;;
50104;SDS011;47690;39.202;-77.198;2023-06-14T07:51:07;5.10;;;4.10;;
50104;SDS011;47690;39.202;-77.198;2023-06-14T07:53:42;5.15;;;4.30;;
50104;SDS011;47690;39.202;-77.198;2023-06-14T07:56:17;5.43;;;4.63;;
50104;SDS011;47690;39.202;-77.198;2023-06-14T07:58:57;4.88;;;4.38;;
50104;SDS011;47690;39.202;-77.198;2023-06-14T08:01:28;5.15;;;4.45;;
50104;SDS011;47690;39.202;-77.198;2023-06-14T08:04:07;5.00;;;4.22;;
50104;SDS011;47690;39.202;-77.198;2023-06-14T08:06:38;4.47;;;3.92;;
50104;SDS011;47690;39.202;-77.198;2023-06-14T08:09:08;4.65;;;3.95;;
50104;SDS011;47690;39.202;-77.198;2023-06-14T08:11:42;6.88;;;4.82;;
50104;SDS011;47690;39.202;-77.198;2023-06-14T08:14:23;5.18;;;4.10;;
50104;SDS011;47690;39.202;-77.198;2023-06-14T08:16:55;5.00;;;4.38;;
50104;SDS011;47690;39.202;-77.198;2023-06-14T08:19:31;6.65;;;4.50;;
50104;SDS011;47690;39.202;-77.198;2023-06-14T08:22:12;4.80;;;4.03;;
50104;SDS011;47690;39.202;-77.198;2023-06-14T08:24:52;4.80;;;4.00;;
50104;SDS011;47690;39.202;-77.198;2023-06-14T08:27:26;4.55;;;4.05;;
50104;SDS011;47690;39.202;-77.198;2023-06-14T08:29:59;5.07;;;4.57;;
50104;SDS011;47690;39.202;-77.198;2023-06-14T08:32:31;4.57;;;4.07;;
50104;SDS011;47690;39.202;-77.198;2023-06-14T08:35:15;5.38;;;4.70;;
50104;SDS011;47690;39.202;-77.198;2023-06-14T08:37:48;6.05;;;4.65;;
50104;SDS011;47690;39.202;-77.198;2023-06-14T08:40:22;5.93;;;4.15;;
50104;SDS011;47690;39.202;-77.198;2023-06-14T08:42:55;4.80;;;4.20;;
50104;SDS011;47690;39.202;-77.198;2023-06-14T08:45:26;5.78;;;4.32;;
50104;SDS011;47690;39.202;-77.198;2023-06-14T08:48:02;6.18;;;4.38;;
50104;SDS011;47690;39.202;-77.198;2023-06-14T08:50:32;5.28;;;4.43;;
50104;SDS011;47690;39.202;-77.198;2023-06-14T08:53:11;5.15;;;4.40;;
50104;SDS011;47690;39.202;-77.198;2023-06-14T08:55:48;4.63;;;4.20;;
50104;SDS011;47690;39.202;-77.198;2023-06-14T08:58:23;5.45;;;4.28;;
50104;SDS011;47690;39.202;-77.198;2023-06-14T09:01:03;5.03;;;4.38;;
50104;SDS011;47690;39.202;-77.198;2023-06-14T09:03:36;5.10;;;4.60;;
50104;SDS011;47690;39.202;-77.198;2023-06-14T09:06:12;4.43;;;3.97;;
50104;SDS011;47690;39.202;-77.198;2023-06-14T09:08:52;6.68;;;4.60;;
50104;SDS011;47690;39.202;-77.198;2023-06-14T09:11:24;5.55;;;4.90;;
50104;SDS011;47690;39.202;-77.198;2023-06-14T09:14:00;5.35;;;4.25;;
50104;SDS011;47690;39.202;-77.198;2023-06-14T09:16:52;5.00;;;4.50;;
50104;SDS011;47690;39.202;-77.198;2023-06-14T09:20:28;4.72;;;4.25;;
50104;SDS011;47690;39.202;-77.198;2023-06-14T09:24:25;5.13;;;4.63;;
50104;SDS011;47690;39.202;-77.198;2023-06-14T09:27:42;4.63;;;4.00;;
50104;SDS011;47690;39.202;-77.198;2023-06-14T09:32:16;4.75;;;4.20;;
50104;SDS011;47690;39.202;-77.198;2023-06-14T09:36:16;4.70;;;4.05;;
50104;SDS011;47690;39.202;-77.198;2023-06-14T09:48:40;5.38;;;4.18;;
50104;SDS011;47690;39.202;-77.198;2023-06-14T09:57:41;4.18;;;3.75;;
50104;SDS011;47690;39.202;-77.198;2023-06-14T10:01:59;4.45;;;4.05;;
50104;SDS011;47690;39.202;-77.198;2023-06-14T10:11:12;4.75;;;3.90;;
50104;SDS011;47690;39.202;-77.198;2023-06-14T10:24:50;3.92;;;3.45;;
50104;SDS011;47690;39.202;-77.198;2023-06-14T10:28:38;4.35;;;3.92;;
50104;SDS011;47690;39.202;-77.198;2023-06-14T10:31:09;5.18;;;4.50;;
50104;SDS011;47690;39.202;-77.198;2023-06-14T10:34:03;5.45;;;4.45;;
50104;SDS011;47690;39.202;-77.198;2023-06-14T10:39:52;5.10;;;4.60;;
50104;SDS011;47690;39.202;-77.198;2023-06-14T10:42:29;7.38;;;5.18;;
50104;SDS011;47690;39.202;-77.198;2023-06-14T10:45:07;5.35;;;4.53;;
50104;SDS011;47690;39.202;-77.198;2023-06-14T10:48:43;8.82;;;4.47;;
50104;SDS011;47690;39.202;-77.198;2023-06-14T10:51:51;5.25;;;4.55;;
50104;SDS011;47690;39.202;-77.198;2023-06-14T10:54:28;4.80;;;4.30;;
50104;SDS011;47690;39.202;-77.198;2023-06-14T10:57:30;5.80;;;4.53;;
50104;SDS011;47690;39.202;-77.198;2023-06-14T11:05:23;5.28;;;4.32;;
50104;SDS011;47690;39.202;-77.198;2023-06-14T11:12:47;4.97;;;4.35;;
50104;SDS011;47690;39.202;-77.198;2023-06-14T11:16:18;4.97;;;4.15;;
50104;SDS011;47690;39.202;-77.198;2023-06-14T11:19:35;5.03;;;4.22;;
50104;SDS011;47690;39.202;-77.198;2023-06-14T11:22:23;5.05;;;4.30;;
50104;SDS011;47690;39.202;-77.198;2023-06-14T11:24:55;4.57;;;4.18;;
50104;SDS011;47690;39.202;-77.198;2023-06-14T11:27:38;5.07;;;4.57;;
50104;SDS011;47690;39.202;-77.198;2023-06-14T11:34:07;4.43;;;4.00;;
50104;SDS011;47690;39.202;-77.198;2023-06-14T11:37:07;4.78;;;4.20;;
50104;SDS011;47690;39.202;-77.198;2023-06-14T11:40:01;4.70;;;4.22;;
50104;SDS011;47690;39.202;-77.198;2023-06-14T11:43:03;4.97;;;4.28;;
50104;SDS011;47690;39.202;-77.198;2023-06-14T12:11:32;5.53;;;4.07;;
50104;SDS011;47690;39.202;-77.198;2023-06-14T12:14:27;4.15;;;3.72;;
50104;SDS011;47690;39.202;-77.198;2023-06-14T12:28:08;5.18;;;4.40;;
50104;SDS011;47690;39.202;-77.198;2023-06-14T12:42:12;5.65;;;4.00;;
50104;SDS011;47690;39.202;-77.198;2023-06-14T12:45:02;5.03;;;4.28;;
50104;SDS011;47690;39.202;-77.198;2023-06-14T12:47:38;5.03;;;4.32;;
50104;SDS011;47690;39.202;-77.198;2023-06-14T12:50:10;4.45;;;4.05;;
50104;SDS011;47690;39.202;-77.198;2023-06-14T12:52:47;5.47;;;4.78;;
50104;SDS011;47690;39.202;-77.198;2023-06-14T12:55:35;5.15;;;4.50;;
50104;SDS011;47690;39.202;-77.198;2023-06-14T12:58:17;5.07;;;4.57;;
50104;SDS011;47690;39.202;-77.198;2023-06-14T13:31:15;4.55;;;3.78;;
50104;SDS011;47690;39.202;-77.198;2023-06-14T13:36:56;6.18;;;4.78;;
50104;SDS011;47690;39.202;-77.198;2023-06-14T13:39:42;5.18;;;4.32;;
50104;SDS011;47690;39.202;-77.198;2023-06-14T13:42:28;5.63;;;4.50;;
50104;SDS011;47690;39.202;-77.198;2023-06-14T13:45:11;5.90;;;4.55;;
50104;SDS011;47690;39.202;-77.198;2023-06-14T13:50:54;5.03;;;4.25;;
50104;SDS011;47690;39.202;-77.198;2023-06-14T13:53:40;6.35;;;4.60;;
50104;SDS011;47690;39.202;-77.198;2023-06-14T13:56:23;6.07;;;4.13;;
50104;SDS011;47690;39.202;-77.198;2023-06-14T13:58:54;6.85;;;4.50;;
50104;SDS011;47690;39.202;-77.198;2023-06-14T14:01:26;5.32;;;4.43;;
50104;SDS011;47690;39.202;-77.198;2023-06-14T14:04:02;4.53;;;4.07;;
50104;SDS011;47690;39.202;-77.198;2023-06-14T14:06:51;4.90;;;4.05;;
50104;SDS011;47690;39.202;-77.198;2023-06-14T14:09:21;5.70;;;4.07;;
50104;SDS011;47690;39.202;-77.198;2023-06-14T14:11:58;5.35;;;4.65;;
50104;SDS011;47690;39.202;-77.198;2023-06-14T14:19:55;5.70;;;4.43;;
50104;SDS011;47690;39.202;-77.198;2023-06-14T14:22:40;5.97;;;4.63;;
50104;SDS011;47690;39.202;-77.198;2023-06-14T14:27:07;5.03;;;4.07;;
50104;SDS011;47690;39.202;-77.198;2023-06-14T14:34:59;4.63;;;4.15;;
50104;SDS011;47690;39.202;-77.198;2023-06-14T14:37:46;4.90;;;4.35;;
50104;SDS011;47690;39.202;-77.198;2023-06-14T14:40:20;5.00;;;4.50;;
50104;SDS011;47690;39.202;-77.198;2023-06-14T14:42:55;5.28;;;4.45;;
50104;SDS011;47690;39.202;-77.198;2023-06-14T14:45:26;5.32;;;4.57;;
50104;SDS011;47690;39.202;-77.198;2023-06-14T14:47:59;5.07;;;4.22;;
50104;SDS011;47690;39.202;-77.198;2023-06-14T14:50:51;5.28;;;4.45;;
50104;SDS011;47690;39.202;-77.198;2023-06-14T14:53:26;6.70;;;4.88;;
50104;SDS011;47690;39.202;-77.198;2023-06-14T14:56:04;4.82;;;4.32;;
50104;SDS011;47690;39.202;-77.198;2023-06-14T14:58:48;5.25;;;4.60;;
50104;SDS011;47690;39.202;-77.198;2023-06-14T15:01:29;6.15;;;5.03;;
50104;SDS011;47690;39.202;-77.198;2023-06-14T15:04:12;7.80;;;4.95;;
50104;SDS011;47690;39.202;-77.198;2023-06-14T15:06:57;4.72;;;4.18;;
50104;SDS011;47690;39.202;-77.198;2023-06-14T15:09:47;5.28;;;4.70;;
50104;SDS011;47690;39.202;-77.198;2023-06-14T15:12:28;5.25;;;4.63;;
50104;SDS011;47690;39.202;-77.198;2023-06-14T15:15:04;5.38;;;4.45;;
50104;SDS011;47690;39.202;-77.198;2023-06-14T15:18:57;6.18;;;4.55;;
50104;SDS011;47690;39.202;-77.198;2023-06-14T15:21:35;5.68;;;4.85;;
50104;SDS011;47690;39.202;-77.198;2023-06-14T15:24:09;6.38;;;4.90;;
50104;SDS011;47690;39.202;-77.198;2023-06-14T15:27:45;5.30;;;4.57;;
50104;SDS011;47690;39.202;-77.198;2023-06-14T15:31:55;5.30;;;4.47;;
50104;SDS011;47690;39.202;-77.198;2023-06-14T15:34:35;6.70;;;5.03;;
50104;SDS011;47690;39.202;-77.198;2023-06-14T15:37:10;6.38;;;5.00;;
50104;SDS011;47690;39.202;-77.198;2023-06-14T15:40:27;5.32;;;4.78;;
50104;SDS011;47690;39.202;-77.198;2023-06-14T15:43:04;7.55;;;4.95;;
50104;SDS011;47690;39.202;-77.198;2023-06-14T15:45:51;5.28;;;4.68;;
50104;SDS011;47690;39.202;-77.198;2023-06-14T15:48:24;6.10;;;4.90;;
50104;SDS011;47690;39.202;-77.198;2023-06-14T15:50:55;5.75;;;4.78;;
50104;SDS011;47690;39.202;-77.198;2023-06-14T15:53:28;5.60;;;4.60;;
50104;SDS011;47690;39.202;-77.198;2023-06-14T15:56:11;7.32;;;5.20;;
50104;SDS011;47690;39.202;-77.198;2023-06-14T15:58:56;6.10;;;5.03;;
50104;SDS011;47690;39.202;-77.198;2023-06-14T16:01:35;5.97;;;4.97;;
50104;SDS011;47690;39.202;-77.198;2023-06-14T16:04:08;5.70;;;5.13;;
50104;SDS011;47690;39.202;-77.198;2023-06-14T16:10:02;5.97;;;5.13;;
50104;SDS011;47690;39.202;-77.198;2023-06-14T16:13:04;7.20;;;5.55;;
50104;SDS011;47690;39.202;-77.198;2023-06-14T16:16:06;5.93;;;5.10;;
50104;SDS011;47690;39.202;-77.198;2023-06-14T16:18:44;5.55;;;4.82;;
50104;SDS011;47690;39.202;-77.198;2023-06-14T16:21:26;6.15;;;5.00;;
50104;SDS011;47690;39.202;-77.198;2023-06-14T16:24:08;5.32;;;4.80;;
50104;SDS011;47690;39.202;-77.198;2023-06-14T16:30:23;6.28;;;4.97;;
50104;SDS011;47690;39.202;-77.198;2023-06-14T16:33:04;5.25;;;4.75;;
50104;SDS011;47690;39.202;-77.198;2023-06-14T16:35:52;6.22;;;4.68;;
50104;SDS011;47690;39.202;-77.198;2023-06-14T16:39:34;5.85;;;4.47;;
50104;SDS011;47690;39.202;-77.198;2023-06-14T16:42:46;5.82;;;5.20;;
50104;SDS011;47690;39.202;-77.198;2023-06-14T16:45:17;7.25;;;5.13;;
50104;SDS011;47690;39.202;-77.198;2023-06-14T16:58:00;4.40;;;3.92;;
50104;SDS011;47690;39.202;-77.198;2023-06-14T17:04:08;4.50;;;3.47;;
50104;SDS011;47690;39.202;-77.198;2023-06-14T17:06:55;4.70;;;3.85;;
50104;SDS011;47690;39.202;-77.198;2023-06-14T17:12:53;3.92;;;3.40;;
50104;SDS011;47690;39.202;-77.198;2023-06-14T17:20:12;3.10;;;2.80;;
50104;SDS011;47690;39.202;-77.198;2023-06-14T17:23:06;3.42;;;2.67;;
50104;SDS011;47690;39.202;-77.198;2023-06-14T17:25:48;2.70;;;2.50;;
50104;SDS011;47690;39.202;-77.198;2023-06-14T17:28:28;2.75;;;2.50;;
50104;SDS011;47690;39.202;-77.198;2023-06-14T17:34:22;2.42;;;2.20;;
50104;SDS011;47690;39.202;-77.198;2023-06-14T17:37:00;2.50;;;2.08;;
50104;SDS011;47690;39.202;-77.198;2023-06-14T17:39:50;2.35;;;2.13;;
50104;SDS011;47690;39.202;-77.198;2023-06-14T17:42:32;2.20;;;2.00;;
50104;SDS011;47690;39.202;-77.198;2023-06-14T17:45:20;1.80;;;1.70;;
50104;SDS011;47690;39.202;-77.198;2023-06-14T17:48:28;2.70;;;2.03;;
50104;SDS011;47690;39.202;-77.198;2023-06-14T17:51:08;2.03;;;1.83;;
50104;SDS011;47690;39.202;-77.198;2023-06-14T17:54:08;1.85;;;1.70;;
50104;SDS011;47690;39.202;-77.198;2023-06-14T17:57:20;2.03;;;1.80;;
50104;SDS011;47690;39.202;-77.198;2023-06-14T18:00:25;2.10;;;1.80;;
50104;SDS011;47690;39.202;-77.198;2023-06-14T18:03:36;1.80;;;1.70;;
50104;SDS011;47690;39.202;-77.198;2023-06-14T18:11:23;1.70;;;1.60;;
50104;SDS011;47690;39.202;-77.198;2023-06-14T18:14:38;1.70;;;1.60;;
50104;SDS011;47690;39.202;-77.198;2023-06-14T18:17:25;1.70;;;1.60;;
50104;SDS011;47690;39.202;-77.198;2023-06-14T18:20:04;3.47;;;1.85;;
50104;SDS011;47690;39.202;-77.198;2023-06-14T18:22:52;1.75;;;1.65;;
50104;SDS011;47690;39.202;-77.198;2023-06-14T18:25:36;1.83;;;1.73;;
50104;SDS011;47690;39.202;-77.198;2023-06-14T18:28:23;2.05;;;1.85;;
50104;SDS011;47690;39.202;-77.198;2023-06-14T18:31:03;1.90;;;1.80;;
50104;SDS011;47690;39.202;-77.198;2023-06-14T18:33:56;2.38;;;1.80;;
50104;SDS011;47690;39.202;-77.198;2023-06-14T18:36:39;2.55;;;1.98;;
50104;SDS011;47690;39.202;-77.198;2023-06-14T18:39:26;1.70;;;1.60;;
50104;SDS011;47690;39.202;-77.198;2023-06-14T18:41:56;2.00;;;1.80;;
50104;SDS011;47690;39.202;-77.198;2023-06-14T18:44:32;1.77;;;1.67;;
50104;SDS011;47690;39.202;-77.198;2023-06-14T18:48:00;2.20;;;2.00;;
50104;SDS011;47690;39.202;-77.198;2023-06-14T18:50:54;2.10;;;1.90;;
50104;SDS011;47690;39.202;-77.198;2023-06-14T18:54:34;2.05;;;1.85;;
50104;SDS011;47690;39.202;-77.198;2023-06-14T18:57:46;2.83;;;1.80;;
50104;SDS011;47690;39.202;-77.198;2023-06-14T19:04:08;2.08;;;1.83;;
50104;SDS011;47690;39.202;-77.198;2023-06-14T19:07:36;2.00;;;1.80;;
50104;SDS011;47690;39.202;-77.198;2023-06-14T19:15:28;2.30;;;2.08;;
50104;SDS011;47690;39.202;-77.198;2023-06-14T19:18:07;2.53;;;1.98;;
50104;SDS011;47690;39.202;-77.198;2023-06-14T19:21:37;2.20;;;2.00;;
50104;SDS011;47690;39.202;-77.198;2023-06-14T19:28:04;1.92;;;1.80;;
50104;SDS011;47690;39.202;-77.198;2023-06-14T19:31:18;2.10;;;1.90;;
50104;SDS011;47690;39.202;-77.198;2023-06-14T19:33:58;2.20;;;2.00;;
50104;SDS011;47690;39.202;-77.198;2023-06-14T19:36:32;2.05;;;1.85;;
50104;SDS011;47690;39.202;-77.198;2023-06-14T19:39:27;3.05;;;1.83;;
50104;SDS011;47690;39.202;-77.198;2023-06-14T19:42:15;2.30;;;2.10;;
50104;SDS011;47690;39.202;-77.198;2023-06-14T19:45:00;2.28;;;2.08;;
50104;SDS011;47690;39.202;-77.198;2023-06-14T19:47:34;2.03;;;1.88;;
50104;SDS011;47690;39.202;-77.198;2023-06-14T19:50:08;2.35;;;2.10;;
50104;SDS011;47690;39.202;-77.198;2023-06-14T19:53:48;2.90;;;2.00;;
50104;SDS011;47690;39.202;-77.198;2023-06-14T19:56:36;2.20;;;2.00;;
50104;SDS011;47690;39.202;-77.198;2023-06-14T19:59:56;2.20;;;2.00;;
50104;SDS011;47690;39.202;-77.198;2023-06-14T20:08:01;1.95;;;1.70;;
50104;SDS011;47690;39.202;-77.198;2023-06-14T20:11:22;1.75;;;1.65;;
50104;SDS011;47690;39.202;-77.198;2023-06-14T20:17:57;2.35;;;2.03;;